Latest Weather Observations for The Monument

IDQ60801

Issued at 4:02 pm EST Saturday 30 May 2015 (issued every 30 minutes, with the page automatically refreshed every 10 minutes)

About weather observations | Map of weather stations | Latest weather observations for QLD | Other Formats
Station Details ID: 037034 Name: THE MONUMENT AIRPORT Lat: -21.81 Lon: 139.93 Height: 288.4 m
Data from the previous 72 hours. | See also: Recent months at The Monument
Date/Time
EST
Temp
°C
App
Temp
°C
Dew
Point
Rel
Hum
%
Delta-T
°C
Wind Press
QNH
hPa
Press
MSL
hPa
Rain
since 9 am
mm
Dir
 
Spd
km/h
Gust
km/h
Spd
kts
Gust
kts
30/04:00pm 31.6 30.9 11.9 30 11.7 S 7 11 4 6 1014.8 1013.9 0.0
30/03:30pm 32.2 31.8 12.4 30 11.9 NE 6 13 3 7 1015.0 1014.1 0.0
30/03:00pm 31.2 29.8 12.1 31 11.4 ENE 11 19 6 10 1015.2 1014.3 0.0
30/02:30pm 31.5 29.6 11.8 30 11.7 NE 13 22 7 12 1015.5 1014.6 0.0
30/02:00pm 30.8 29.4 12.2 32 11.1 NW 11 17 6 9 1016.0 1015.1 0.0
30/01:30pm 30.4 29.0 12.3 33 10.8 NE 11 26 6 14 1016.6 1015.8 0.0
30/01:00pm 30.3 28.4 13.1 34 10.3 NNW 15 20 8 11 1017.1 1016.2 0.0
30/12:30pm 30.6 28.7 13.0 34 10.6 N 15 24 8 13 1017.7 1016.8 0.0
30/12:00pm 29.9 26.9 13.6 36 9.9 NNE 22 33 12 18 1018.1 1017.2 0.0
30/11:30am 28.6 25.1 13.3 39 9.2 NNE 24 35 13 19 1018.7 1017.8 0.0
30/11:00am 28.7 25.6 13.4 39 9.2 NNE 22 32 12 17 1019.2 1018.3 0.0
30/10:30am 27.8 24.7 13.3 40 8.6 NNE 22 32 12 17 1019.7 1018.9 0.0
30/10:00am 26.1 23.2 12.2 42 8.1 NNE 19 28 10 15 1020.4 1019.5 0.0
30/09:30am 25.3 22.5 12.5 45 7.5 NNE 19 26 10 14 1020.0 1019.2 0.0
30/09:00am 23.8 21.4 11.5 46 7.0 NNE 15 26 8 14 1020.0 1019.2 0.0
30/08:30am 21.4 21.7 10.9 51 5.8 CALM 0 6 0 3 1019.9 1019.1 0.0
30/08:00am 17.7 17.4 8.8 56 4.7 CALM 0 0 0 0 1019.7 1018.9 0.0
30/07:30am 16.0 15.6 8.2 60 4.0 CALM 0 0 0 0 1019.2 1018.3 0.0
30/07:00am 15.4 14.8 7.2 58 4.1 CALM 0 0 0 0 1018.9 1018.0 0.0
30/06:30am 15.7 15.0 8.7 63 3.6 NW 2 7 1 4 1018.6 1017.7 0.0
30/06:00am 15.3 14.8 7.8 61 3.8 CALM 0 0 0 0 1018.3 1017.4 0.0
30/05:30am 15.8 15.3 7.8 59 4.1 CALM 0 0 0 0 1018.0 1017.1 0.0
30/05:00am 16.8 15.4 9.0 60 4.1 ENE 6 9 3 5 1017.7 1016.8 0.0
30/04:30am 17.0 16.3 8.4 57 4.5 NNE 2 6 1 3 1017.7 1016.8 0.0
30/04:00am 18.4 18.3 9.5 56 4.7 CALM 0 0 0 0 1017.4 1016.5 0.0
30/03:30am 18.8 17.4 9.6 55 4.9 ENE 7 11 4 6 1017.6 1016.7 0.0
30/03:00am 19.7 17.6 9.9 53 5.3 ENE 11 13 6 7 1017.4 1016.5 0.0
30/02:30am 20.3 18.8 10.4 53 5.4 E 9 15 5 8 1017.7 1016.8 0.0
30/02:00am 19.5 18.1 9.7 53 5.3 ESE 7 9 4 5 1018.2 1017.3 0.0
30/01:30am 20.1 18.3 9.4 50 5.8 SE 9 9 5 5 1018.6 1017.7 0.0
30/01:00am 20.4 19.0 9.0 48 6.1 ESE 6 9 3 5 1018.8 1017.9 0.0
30/12:30am 21.2 18.9 9.1 46 6.5 SSE 11 11 6 6 1019.1 1018.2 0.0
30/12:00am 22.2 20.2 10.0 46 6.7 ESE 11 15 6 8 1019.0 1018.1 0.0
 
Date/Time
EST
Temp
°C
App
Temp
°C
Dew
Point
Rel
Hum
%
Delta-T
°C
Wind Press
QNH
hPa
Press
MSL
hPa
Rain
since 9 am
mm
Dir
 
Spd
km/h
Gust
km/h
Spd
kts
Gust
kts
29/11:30pm 20.3 19.3 7.3 43 6.7 ESE 2 6 1 3 1019.2 1018.3 0.0
29/11:00pm 20.4 19.4 7.4 43 6.7 ENE 2 7 1 4 1019.2 1018.3 0.0
29/10:30pm 21.1 20.6 8.0 43 6.9 CALM 0 0 0 0 1019.3 1018.4 0.0
29/10:00pm 21.1 19.3 8.0 43 6.9 ESE 7 9 4 5 1019.1 1018.2 0.0
29/09:30pm 22.3 20.9 8.8 42 7.3 S 6 7 3 4 1019.0 1018.1 0.0
29/09:00pm 22.7 21.9 9.5 43 7.2 E 4 7 2 4 1018.8 1017.9 0.0
29/08:30pm 23.5 22.2 9.1 40 7.9 ENE 6 9 3 5 1018.8 1017.9 0.0
29/08:00pm 24.6 22.9 9.7 39 8.2 ESE 9 11 5 6 1018.4 1017.5 0.0
29/07:30pm 25.0 23.2 9.3 37 8.7 E 9 11 5 6 1018.1 1017.2 0.0
29/07:00pm 26.1 24.3 9.4 35 9.3 E 9 11 5 6 1017.7 1016.8 0.0
29/06:30pm 27.4 25.2 9.3 32 10.1 E 11 11 6 6 1017.4 1016.5 0.0
29/06:00pm 28.8 27.0 9.5 30 10.9 SE 9 13 5 7 1017.3 1016.4 0.0
29/05:30pm 30.2 28.1 9.7 28 11.7 ESE 11 19 6 10 1017.0 1016.1 0.0
29/05:00pm 31.1 28.1 9.3 26 12.4 ESE 15 24 8 13 1016.9 1016.0 0.0
29/04:30pm 31.3 28.9 10.1 27 12.2 E 13 17 7 9 1016.6 1015.8 0.0
29/04:00pm 31.2 28.8 10.0 27 12.2 E 13 24 7 13 1016.6 1015.8 0.0
29/03:30pm 31.5 28.4 10.2 27 12.3 E 17 24 9 13 1016.5 1015.7 0.0
29/03:00pm 31.5 28.8 10.2 27 12.3 E 15 22 8 12 1016.8 1015.9 0.0
29/02:30pm 31.5 29.7 10.8 28 12.1 SE 11 20 6 11 1017.1 1016.2 0.0
29/02:00pm 32.0 30.1 11.7 28 12.0 NE 13 22 7 12 1017.3 1016.4 0.0
29/01:30pm 31.4 29.1 11.7 29 11.7 E 15 26 8 14 1017.6 1016.7 0.0
29/01:00pm 30.6 28.5 11.1 30 11.4 NE 13 20 7 11 1018.3 1017.4 0.0
29/12:30pm 29.9 27.0 10.9 31 11.0 NE 17 26 9 14 1018.8 1017.9 0.0
29/12:00pm 29.6 27.3 11.6 33 10.5 NE 15 26 8 14 1019.1 1018.2 0.0
29/11:30am 29.0 26.8 12.0 35 10.0 ENE 15 24 8 13 1019.6 1018.8 0.0
29/11:00am 28.1 25.1 12.0 36 9.4 NNE 19 30 10 16 1020.1 1019.3 0.0
29/10:30am 27.4 24.5 12.2 39 8.9 NE 19 26 10 14 1020.6 1019.7 0.0
29/10:00am 25.6 21.6 11.7 42 8.0 NE 24 32 13 17 1020.6 1019.7 0.0
29/09:30am 24.9 21.7 11.8 44 7.5 NE 20 30 11 16 1020.5 1019.6 0.0
29/09:00am 23.6 20.1 11.0 45 7.1 NE 20 26 11 14 1020.6 1019.7 0.0
29/08:30am 22.4 19.9 10.9 48 6.4 NE 15 19 8 10 1020.2 1019.4 0.0
29/08:00am 19.5 17.5 10.2 55 5.1 NE 11 15 6 8 1019.8 1019.0 0.0
29/07:30am 16.3 14.5 9.5 64 3.6 NE 9 11 5 6 1019.7 1018.9 0.0
29/07:00am 14.6 14.0 7.6 63 3.5 CALM 0 0 0 0 1019.4 1018.5 0.0
29/06:30am 15.1 14.4 6.9 58 4.1 CALM 0 6 0 3 1019.1 1018.2 0.0
29/06:00am 15.7 15.2 8.0 60 3.9 CALM 0 0 0 0 1018.9 1018.0 0.0
29/05:30am 15.9 15.7 9.1 64 3.6 CALM 0 0 0 0 1018.6 1017.7 0.0
29/05:00am 15.7 15.1 7.2 57 4.3 CALM 0 0 0 0 1018.4 1017.5 0.0
29/04:30am 16.8 14.9 9.2 61 4.0 NNE 9 9 5 5 1018.3 1017.4 0.0
29/04:00am 16.2 14.8 8.9 62 3.8 NNE 6 9 3 5 1018.4 1017.5 0.0
29/03:30am 15.9 15.0 6.1 52 4.8 CALM 0 0 0 0 1018.4 1017.5 0.0
29/03:00am 16.4 16.0 8.1 58 4.3 CALM 0 0 0 0 1018.3 1017.4 0.0
29/02:30am 16.4 15.6 6.5 52 4.9 CALM 0 0 0 0 1018.5 1017.6 0.0
29/02:00am 17.9 17.3 7.3 50 5.4 CALM 0 0 0 0 1018.7 1017.8 0.0
29/01:30am 18.2 17.8 8.2 52 5.2 CALM 0 0 0 0 1018.7 1017.8 0.0
29/01:00am 18.5 17.8 7.0 47 5.8 CALM 0 6 0 3 1018.8 1017.9 0.0
29/12:30am 19.0 17.1 8.9 52 5.4 NNE 9 9 5 5 1018.9 1018.0 0.0
29/12:00am 19.6 18.1 7.0 44 6.4 SE 4 7 2 4 1019.3 1018.4 0.0
 
Date/Time
EST
Temp
°C
App
Temp
°C
Dew
Point
Rel
Hum
%
Delta-T
°C
Wind Press
QNH
hPa
Press
MSL
hPa
Rain
since 9 am
mm
Dir
 
Spd
km/h
Gust
km/h
Spd
kts
Gust
kts
28/11:30pm 19.9 18.3 8.9 49 5.9 E 7 11 4 6 1019.5 1018.6 0.0
28/11:00pm 20.0 18.0 7.1 43 6.6 ESE 7 7 4 4 1019.6 1018.8 0.0
28/10:30pm 21.2 20.9 8.5 44 6.8 CALM 0 0 0 0 1019.5 1018.6 0.0
28/10:00pm 21.4 21.0 8.3 43 6.9 CALM 0 0 0 0 1019.3 1018.4 0.0
28/09:30pm 22.2 20.3 9.0 43 7.1 ENE 9 11 5 6 1019.2 1018.3 0.0
28/09:00pm 22.3 20.2 8.4 41 7.4 ENE 9 11 5 6 1019.1 1018.2 0.0
28/08:30pm 22.9 20.9 7.0 36 8.3 E 7 9 4 5 1019.1 1018.2 0.0
28/08:00pm 24.0 21.6 7.2 34 8.9 ESE 9 11 5 6 1018.8 1017.9 0.0
28/07:30pm 24.7 22.1 7.8 34 9.1 ESE 11 11 6 6 1018.5 1017.6 0.0
28/07:00pm 25.2 22.9 7.3 32 9.5 E 9 9 5 5 1018.1 1017.2 0.0
28/06:30pm 26.8 24.6 7.8 30 10.3 ESE 9 11 5 6 1017.8 1016.9 0.0
28/06:00pm 28.4 26.5 7.6 27 11.3 E 7 9 4 5 1017.3 1016.4 0.0
28/05:30pm 29.8 27.3 8.2 26 12.0 E 11 17 6 9 1016.9 1016.0 0.0
28/05:00pm 30.4 29.0 8.7 26 12.2 ENE 6 15 3 8 1016.9 1016.0 0.0
28/04:30pm 30.7 29.3 9.0 26 12.3 E 6 17 3 9 1016.6 1015.8 0.0
28/04:00pm 31.1 30.2 9.3 26 12.4 NE 4 17 2 9 1016.6 1015.8 0.0
28/03:30pm 30.9 28.8 9.7 27 12.1 E 11 17 6 9 1016.6 1015.8 0.0
28/03:00pm 31.1 29.8 9.9 27 12.2 N 7 13 4 7 1016.6 1015.8 0.0
28/02:30pm 30.6 28.2 10.0 28 11.8 ENE 13 22 7 12 1016.9 1016.0 0.0
28/02:00pm 30.8 29.5 11.2 30 11.5 ENE 9 20 5 11 1017.2 1016.3 0.0
28/01:30pm 30.2 27.6 10.7 30 11.3 ENE 15 22 8 12 1017.6 1016.7 0.0
28/01:00pm 29.8 27.7 11.3 32 10.8 NE 13 22 7 12 1018.1 1017.2 0.0
28/12:30pm 29.8 27.0 11.3 32 10.8 NNE 17 28 9 15 1018.5 1017.6 0.0
28/12:00pm 29.0 25.6 11.1 33 10.4 NE 20 32 11 17 1018.8 1017.9 0.0
28/11:30am 28.9 25.8 11.5 34 10.2 NE 19 28 10 15 1019.2 1018.3 0.0
28/11:00am 27.8 23.7 11.4 36 9.5 NE 24 32 13 17 1019.3 1018.4 0.0
28/10:30am 26.9 23.9 11.8 39 8.8 NE 19 28 10 15 1019.6 1018.8 0.0
28/10:00am 25.8 22.7 11.6 41 8.2 NE 19 26 10 14 1019.8 1019.0 0.0
28/09:30am 24.6 21.6 11.9 45 7.3 NE 19 28 10 15 1019.8 1019.0 0.0
28/09:00am 23.2 20.3 10.9 46 6.9 ENE 17 20 9 11 1019.8 1019.0 -
28/08:30am 19.7 19.4 8.7 49 5.8 CALM 0 0 0 0 1019.7 1018.9 -
28/08:00am 17.1 16.6 8.0 55 4.7 CALM 0 0 0 0 1019.5 1018.6 -
28/07:30am 15.0 14.4 7.3 60 3.9 CALM 0 0 0 0 1019.3 1018.4 -
28/07:00am 14.5 13.7 6.3 58 4.0 CALM 0 0 0 0 1019.0 1018.1 -
28/06:30am 15.2 14.4 6.5 56 4.3 CALM 0 0 0 0 1018.8 1017.9 -
28/06:00am 14.7 14.2 8.0 64 3.4 CALM 0 0 0 0 1018.6 1017.7 -
28/05:30am 14.9 14.1 6.5 57 4.1 CALM 0 0 0 0 1018.4 1017.5 -
28/05:00am 15.2 13.3 6.7 57 4.2 NE 6 7 3 4 1018.2 1017.3 -
28/04:30am 16.0 14.2 8.0 59 4.1 ENE 7 9 4 5 1018.0 1017.1 -
28/04:00am 15.8 13.8 7.0 56 4.4 NE 7 9 4 5 1018.0 1017.1 -
28/03:30am 16.5 14.8 7.4 55 4.6 NE 6 7 3 4 1018.0 1017.1 -
28/03:00am 17.1 16.5 7.2 52 5.0 CALM 0 0 0 0 1018.1 1017.2 0.0
28/02:30am 17.4 16.6 8.0 54 4.8 E 2 7 1 4 1018.2 1017.3 -
28/02:00am 16.6 14.8 7.0 53 4.8 E 6 9 3 5 1018.4 1017.5 -
28/01:30am 18.0 17.3 7.1 49 5.5 CALM 0 0 0 0 1018.6 1017.7 -
28/01:00am 18.4 17.0 7.2 48 5.7 S 4 7 2 4 1018.4 1017.5 -
28/12:30am 19.0 18.5 7.8 48 5.8 CALM 0 0 0 0 1018.4 1017.5 -
28/12:00am 20.0 17.8 7.7 45 6.4 E 9 11 5 6 1018.4 1017.5 -
 
Date/Time
EST
Temp
°C
App
Temp
°C
Dew
Point
Rel
Hum
%
Delta-T
°C
Wind Press
QNH
hPa
Press
MSL
hPa
Rain
since 9 am
mm
Dir
 
Spd
km/h
Gust
km/h
Spd
kts
Gust
kts
27/11:30pm 21.1 18.3 8.7 45 6.6 E 13 19 7 10 1018.7 1017.8 -
27/11:00pm 21.1 18.5 7.7 42 7.0 ESE 11 15 6 8 1019.1 1018.2 -
27/10:30pm 21.2 18.6 7.8 42 7.0 ESE 11 15 6 8 1019.0 1018.1 -
27/10:00pm 20.9 18.6 7.5 42 7.0 E 9 11 5 6 1019.0 1018.1 -
27/09:30pm 21.7 19.4 7.5 40 7.5 ESE 9 11 5 6 1018.9 1018.0 -
27/09:00pm 22.1 19.4 7.5 39 7.7 SE 11 13 6 7 1018.8 1017.9 -
27/08:30pm 22.9 20.2 7.4 37 8.2 ESE 11 11 6 6 1018.5 1017.6 -
27/08:00pm 23.5 20.9 7.6 36 8.4 ESE 11 13 6 7 1018.2 1017.3 -
27/07:30pm 23.9 21.1 7.1 34 8.9 SE 11 13 6 7 1017.9 1017.0 -
27/07:00pm 25.0 22.3 7.2 32 9.5 ESE 11 11 6 6 1017.4 1016.5 -
27/06:30pm 26.6 23.6 7.6 30 10.3 ESE 13 19 7 10 1017.1 1016.2 -
27/06:00pm 27.9 24.5 7.7 28 11.0 E 15 20 8 11 1016.8 1015.9 -
27/05:30pm 28.8 25.1 7.9 27 11.5 E 17 20 9 11 1016.5 1015.7 -
27/05:00pm 29.5 26.0 7.4 25 12.1 ESE 15 24 8 13 1016.4 1015.5 -
27/04:30pm 29.8 26.5 8.2 26 12.0 E 15 22 8 12 1016.4 1015.5 -

Other Formats:

Comma delimited format used in spreadsheet applications
http://www.bom.gov.au/fwo/IDQ60801/IDQ60801.94336.axf

JavaScript Object Notation format (JSON) in row-major order
http://www.bom.gov.au/fwo/IDQ60801/IDQ60801.94336.json